Time;durP1;ratioP1;P1;durP2;ratioP2;P2;SDS_P1;SDS_P2;PMS_P1;PMS_P2;Temp;Humidity;BMP_temperature;BMP_pressure;BME280_temperature;BME280_humidity;BME280_pressure;Samples;Min_cycle;Max_cycle;Signal;HPM_P1;HPM_P2
2023/09/02 00:00:39;;;;;;;;;;;18.70;99.90;;;;;;4993978;28;19909;-72
2023/09/02 00:03:05;;;;;;;;;;;18.60;99.90;;;;;;4998675;28;20276;-71
2023/09/02 00:05:30;;;;;;;;;;;18.50;99.90;;;;;;4999396;28;19909;-71
2023/09/02 00:07:56;;;;;;;;;;;18.50;99.90;;;;;;4996458;28;19917;-71
2023/09/02 00:10:21;;;;;;;;;;;18.50;99.90;;;;;;4998222;28;20459;-71
2023/09/02 00:12:47;;;;;;;;;;;18.50;99.90;;;;;;4997264;28;20000;-71
2023/09/02 00:15:12;;;;;;;;;;;18.60;99.90;;;;;;4999204;28;19913;-71
2023/09/02 00:17:38;;;;;;;;;;;18.50;99.90;;;;;;4994898;28;19917;-71
2023/09/02 00:20:08;;;;;;;;;;;18.50;99.90;;;;;;4999238;28;19916;-71
2023/09/02 00:22:33;;;;;;;;;;;18.50;99.90;;;;;;4998327;28;20388;-72
2023/09/02 00:24:59;;;;;;;;;;;18.50;99.90;;;;;;4997917;28;19905;-71
2023/09/02 00:27:25;;;;;;;;;;;18.40;99.90;;;;;;4998693;28;19913;-71
2023/09/02 00:29:50;;;;;;;;;;;18.40;99.90;;;;;;4995702;28;19913;-71
2023/09/02 00:32:16;;;;;;;;;;;18.40;99.90;;;;;;4998208;28;20292;-71
2023/09/02 00:34:41;;;;;;;;;;;18.30;99.90;;;;;;4993619;28;20643;-70
2023/09/02 00:37:07;;;;;;;;;;;18.20;99.90;;;;;;4997664;28;20517;-71
2023/09/02 00:39:32;;;;;;;;;;;18.20;99.90;;;;;;4996725;28;19920;-71
2023/09/02 00:41:59;;;;;;;;;;;18.20;99.90;;;;;;4994479;28;19906;-71
2023/09/02 00:44:25;;;;;;;;;;;18.10;99.90;;;;;;5000152;28;20442;-72
2023/09/02 00:46:51;;;;;;;;;;;18.10;99.90;;;;;;5004500;28;19913;-71
2023/09/02 00:49:17;;;;;;;;;;;18.20;99.90;;;;;;5000534;28;19917;-72
2023/09/02 00:51:42;;;;;;;;;;;18.20;99.90;;;;;;5000973;28;21273;-72
2023/09/02 00:54:08;;;;;;;;;;;18.30;99.90;;;;;;4996132;28;19967;-72
2023/09/02 00:56:35;;;;;;;;;;;18.30;99.90;;;;;;5000635;28;19995;-71
2023/09/02 00:59:02;;;;;;;;;;;18.40;99.90;;;;;;4998475;28;19916;-71
2023/09/02 01:01:29;;;;;;;;;;;18.40;99.90;;;;;;5000379;28;20281;-72
2023/09/02 01:03:55;;;;;;;;;;;18.50;99.90;;;;;;5002653;28;20634;-70
2023/09/02 01:06:21;;;;;;;;;;;18.70;99.90;;;;;;5001179;28;19928;-71
2023/09/02 01:08:48;;;;;;;;;;;18.70;99.90;;;;;;5002822;28;19909;-71
2023/09/02 01:11:13;;;;;;;;;;;18.80;99.90;;;;;;5018572;28;20293;-71
2023/09/02 01:13:39;;;;;;;;;;;18.80;99.90;;;;;;4999759;28;19936;-71
2023/09/02 01:16:04;;;;;;;;;;;18.80;99.90;;;;;;4998600;28;20273;-71
2023/09/02 01:18:30;;;;;;;;;;;18.80;99.90;;;;;;5016888;28;20387;-72
2023/09/02 01:21:05;;;;;;;;;;;18.80;99.90;;;;;;5002595;28;19953;-72
2023/09/02 01:23:30;;;;;;;;;;;18.80;99.90;;;;;;5000453;28;19910;-71
2023/09/02 01:25:59;;;;;;;;;;;18.80;99.90;;;;;;4997000;28;20365;-72
2023/09/02 01:28:30;;;;;;;;;;;18.70;99.90;;;;;;5016979;28;19914;-71
2023/09/02 01:30:56;;;;;;;;;;;18.70;99.90;;;;;;4999171;28;19980;-72
2023/09/02 01:33:25;;;;;;;;;;;18.60;99.90;;;;;;5000219;28;20006;-71
2023/09/02 01:35:51;;;;;;;;;;;18.50;99.90;;;;;;5001238;28;19909;-72
2023/09/02 01:38:17;;;;;;;;;;;18.50;99.90;;;;;;4999554;28;20323;-71
2023/09/02 01:40:43;;;;;;;;;;;18.50;99.90;;;;;;5000077;28;20119;-72
2023/09/02 01:43:10;;;;;;;;;;;18.50;99.90;;;;;;4997534;28;20557;-72
2023/09/02 01:45:36;;;;;;;;;;;18.50;99.90;;;;;;5000665;28;19909;-72
2023/09/02 01:48:03;;;;;;;;;;;18.40;99.90;;;;;;4998963;28;21402;-72
2023/09/02 01:50:29;;;;;;;;;;;18.40;99.90;;;;;;5001512;28;19909;-72
2023/09/02 01:52:56;;;;;;;;;;;18.40;99.90;;;;;;5015581;28;20378;-71
2023/09/02 01:55:22;;;;;;;;;;;18.30;99.90;;;;;;4999301;28;20325;-71
2023/09/02 01:57:48;;;;;;;;;;;18.20;99.90;;;;;;4999470;28;19920;-71
2023/09/02 02:00:14;;;;;;;;;;;18.20;99.90;;;;;;5003313;28;19910;-71
2023/09/02 02:02:39;;;;;;;;;;;18.10;99.90;;;;;;5011098;28;19991;-71
2023/09/02 02:05:06;;;;;;;;;;;18.10;99.90;;;;;;5014658;28;19911;-71
2023/09/02 02:07:34;;;;;;;;;;;18.00;99.90;;;;;;5003023;28;19929;-71
2023/09/02 02:10:01;;;;;;;;;;;18.00;99.90;;;;;;4997125;28;19964;-71
2023/09/02 02:12:26;;;;;;;;;;;18.00;99.90;;;;;;5012454;28;19916;-71
2023/09/02 02:14:52;;;;;;;;;;;18.00;99.90;;;;;;5016135;28;19909;-71
2023/09/02 02:17:17;;;;;;;;;;;18.00;99.90;;;;;;4995428;28;19944;-71
2023/09/02 02:19:44;;;;;;;;;;;18.00;99.90;;;;;;5000179;28;19913;-72
2023/09/02 02:22:10;;;;;;;;;;;18.00;99.90;;;;;;4999478;28;19916;-72
2023/09/02 02:24:35;;;;;;;;;;;18.00;99.90;;;;;;4998055;28;19910;-71
2023/09/02 02:27:02;;;;;;;;;;;18.00;99.90;;;;;;4995448;28;20308;-71
2023/09/02 02:29:27;;;;;;;;;;;18.00;99.90;;;;;;4999138;28;19905;-72
2023/09/02 02:31:53;;;;;;;;;;;17.90;99.90;;;;;;4999256;28;19920;-71
2023/09/02 02:34:19;;;;;;;;;;;18.00;99.90;;;;;;5000577;28;19909;-71
2023/09/02 02:36:44;;;;;;;;;;;18.00;99.90;;;;;;5001769;28;19912;-72
2023/09/02 02:39:10;;;;;;;;;;;17.90;99.90;;;;;;4997753;28;19979;-71
2023/09/02 02:41:35;;;;;;;;;;;17.90;99.90;;;;;;4995179;28;20288;-71
2023/09/02 02:44:01;;;;;;;;;;;17.90;99.90;;;;;;4997705;28;20376;-71
2023/09/02 02:46:26;;;;;;;;;;;17.90;99.90;;;;;;4997314;28;19971;-70
2023/09/02 02:48:52;;;;;;;;;;;17.90;99.90;;;;;;5014367;28;19924;-72
2023/09/02 02:51:18;;;;;;;;;;;17.80;99.90;;;;;;5014283;28;19909;-72
2023/09/02 02:53:44;;;;;;;;;;;17.80;99.90;;;;;;4998109;28;21521;-71
2023/09/02 02:56:10;;;;;;;;;;;17.70;99.90;;;;;;4993804;28;19993;-71
2023/09/02 02:58:35;;;;;;;;;;;17.80;99.90;;;;;;4996220;28;19932;-72
2023/09/02 03:01:05;;;;;;;;;;;17.80;99.90;;;;;;5000244;28;19940;-71
2023/09/02 03:03:31;;;;;;;;;;;17.70;99.90;;;;;;5002551;28;19909;-71
2023/09/02 03:05:56;;;;;;;;;;;17.80;99.90;;;;;;5011160;28;19910;-72
2023/09/02 03:08:22;;;;;;;;;;;17.80;99.90;;;;;;5002321;28;19915;-72
2023/09/02 03:10:54;;;;;;;;;;;17.80;99.90;;;;;;5000163;28;19905;-71
2023/09/02 03:13:20;;;;;;;;;;;17.90;99.90;;;;;;5003870;28;20074;-72
2023/09/02 03:15:49;;;;;;;;;;;17.90;99.90;;;;;;5002824;28;19991;-72
2023/09/02 03:18:14;;;;;;;;;;;18.00;99.90;;;;;;4996653;28;19909;-71
2023/09/02 03:20:40;;;;;;;;;;;17.90;99.90;;;;;;5000050;28;19919;-71
2023/09/02 03:23:06;;;;;;;;;;;17.80;99.90;;;;;;4998038;28;19909;-71
2023/09/02 03:25:31;;;;;;;;;;;17.70;99.90;;;;;;4998595;28;20394;-71
2023/09/02 03:27:58;;;;;;;;;;;17.60;99.90;;;;;;4998874;28;19979;-72
2023/09/02 03:30:24;;;;;;;;;;;17.60;99.90;;;;;;4994468;28;19928;-72
2023/09/02 03:32:50;;;;;;;;;;;17.50;99.90;;;;;;4995806;28;19917;-71
2023/09/02 03:35:15;;;;;;;;;;;17.50;99.90;;;;;;4998659;28;19912;-71
2023/09/02 03:37:42;;;;;;;;;;;17.50;99.90;;;;;;5012547;28;19936;-71
2023/09/02 03:40:07;;;;;;;;;;;17.50;99.90;;;;;;5000824;28;20476;-71
2023/09/02 03:42:33;;;;;;;;;;;17.50;99.90;;;;;;4994439;28;19916;-71
2023/09/02 03:44:59;;;;;;;;;;;17.40;99.90;;;;;;5014115;28;19921;-71
2023/09/02 03:47:24;;;;;;;;;;;17.40;99.90;;;;;;5001967;28;19963;-72
2023/09/02 03:49:51;;;;;;;;;;;17.40;99.90;;;;;;4993910;28;19956;-72
2023/09/02 03:52:17;;;;;;;;;;;17.40;99.90;;;;;;4998363;28;19917;-71
2023/09/02 03:54:42;;;;;;;;;;;17.40;99.90;;;;;;4995342;28;19914;-73
2023/09/02 03:57:08;;;;;;;;;;;17.30;99.90;;;;;;4994963;28;19909;-71
2023/09/02 03:59:33;;;;;;;;;;;17.30;99.90;;;;;;4996182;28;19909;-71
2023/09/02 04:01:59;;;;;;;;;;;17.30;99.90;;;;;;4997229;28;20289;-71
2023/09/02 04:04:25;;;;;;;;;;;17.30;99.90;;;;;;5014239;28;19909;-71
2023/09/02 04:06:51;;;;;;;;;;;17.30;99.90;;;;;;4999627;28;20387;-71
2023/09/02 04:09:17;;;;;;;;;;;17.30;99.90;;;;;;4999047;28;20008;-71
2023/09/02 04:11:43;;;;;;;;;;;17.30;99.90;;;;;;5013047;28;19924;-71
2023/09/02 04:14:09;;;;;;;;;;;17.30;99.90;;;;;;4996707;28;20386;-71
2023/09/02 04:16:34;;;;;;;;;;;17.20;99.90;;;;;;4994866;28;19913;-71
2023/09/02 04:19:03;;;;;;;;;;;17.30;99.90;;;;;;4998977;28;20227;-71
2023/09/02 04:21:31;;;;;;;;;;;17.30;99.90;;;;;;5003741;28;19909;-71
2023/09/02 04:23:57;;;;;;;;;;;17.30;99.90;;;;;;5002269;28;19956;-72
2023/09/02 04:26:22;;;;;;;;;;;17.30;99.90;;;;;;5001459;28;19910;-72
2023/09/02 04:28:48;;;;;;;;;;;17.30;99.90;;;;;;5016464;28;19992;-71
2023/09/02 04:31:14;;;;;;;;;;;17.30;99.90;;;;;;4997605;28;19906;-72
2023/09/02 04:33:40;;;;;;;;;;;17.30;99.90;;;;;;4999472;28;20242;-71
2023/09/02 04:36:05;;;;;;;;;;;17.30;99.90;;;;;;5001675;28;19959;-71
2023/09/02 04:38:31;;;;;;;;;;;17.30;99.90;;;;;;4999938;28;19940;-72
2023/09/02 04:41:01;;;;;;;;;;;17.40;99.90;;;;;;5001345;28;19916;-71
2023/09/02 04:43:26;;;;;;;;;;;17.40;99.90;;;;;;4994822;28;20383;-72
2023/09/02 04:45:52;;;;;;;;;;;17.40;99.90;;;;;;5000434;28;19909;-71
2023/09/02 04:48:17;;;;;;;;;;;17.50;99.90;;;;;;5002164;28;20612;-71
2023/09/02 04:50:43;;;;;;;;;;;17.50;99.90;;;;;;4999518;28;19932;-71
2023/09/02 04:53:09;;;;;;;;;;;17.70;99.90;;;;;;5001035;28;19917;-71
2023/09/02 04:55:38;;;;;;;;;;;18.00;99.90;;;;;;5001454;28;19955;-71
2023/09/02 04:58:03;;;;;;;;;;;18.10;99.90;;;;;;5000696;28;19914;-71
2023/09/02 05:00:29;;;;;;;;;;;18.30;99.90;;;;;;5016566;28;20273;-69
2023/09/02 05:02:55;;;;;;;;;;;18.40;99.90;;;;;;4993634;28;19909;-68
2023/09/02 05:05:21;;;;;;;;;;;18.70;99.90;;;;;;5001069;28;19941;-69
2023/09/02 05:07:47;;;;;;;;;;;19.00;99.90;;;;;;5016234;28;19980;-71
2023/09/02 05:10:13;;;;;;;;;;;19.40;99.90;;;;;;4999658;28;20632;-72
2023/09/02 05:12:39;;;;;;;;;;;19.60;99.90;;;;;;5001344;28;19957;-71
2023/09/02 05:15:05;;;;;;;;;;;20.10;99.90;;;;;;4999166;28;19968;-71
2023/09/02 05:17:32;;;;;;;;;;;20.40;99.90;;;;;;5000692;28;20333;-72
2023/09/02 05:20:00;;;;;;;;;;;20.70;99.90;;;;;;4998566;28;19905;-71
2023/09/02 05:22:25;;;;;;;;;;;21.10;99.90;;;;;;4996333;28;19929;-72
2023/09/02 05:24:51;;;;;;;;;;;21.20;99.90;;;;;;5003261;28;19940;-71
2023/09/02 05:27:16;;;;;;;;;;;21.40;99.90;;;;;;4995735;28;19909;-71
2023/09/02 05:29:42;;;;;;;;;;;21.40;99.90;;;;;;5005168;28;20027;-72
2023/09/02 05:32:08;;;;;;;;;;;21.80;99.90;;;;;;4998421;28;20557;-72
2023/09/02 05:34:34;;;;;;;;;;;22.20;99.90;;;;;;4998874;28;19924;-72
2023/09/02 05:37:00;;;;;;;;;;;22.70;99.90;;;;;;4999884;28;20376;-72
2023/09/02 05:39:26;;;;;;;;;;;23.20;99.90;;;;;;4996482;28;19910;-71
2023/09/02 05:41:51;;;;;;;;;;;23.60;99.90;;;;;;4999232;28;19914;-71
2023/09/02 05:44:17;;;;;;;;;;;24.00;99.90;;;;;;5000748;28;19996;-71
2023/09/02 05:46:42;;;;;;;;;;;24.10;99.90;;;;;;4999322;28;21389;-72
2023/09/02 05:49:10;;;;;;;;;;;24.30;99.90;;;;;;5012595;28;20998;-72
2023/09/02 05:51:36;;;;;;;;;;;24.30;99.90;;;;;;5000370;28;19916;-72
2023/09/02 05:54:01;;;;;;;;;;;24.20;99.90;;;;;;4997744;28;19913;-72
2023/09/02 05:56:27;;;;;;;;;;;24.60;99.90;;;;;;5000023;28;19905;-72
2023/09/02 05:58:52;;;;;;;;;;;24.90;99.90;;;;;;4995120;28;20095;-72
2023/09/02 06:01:19;;;;;;;;;;;25.10;99.90;;;;;;4999873;28;19910;-72
2023/09/02 06:03:44;;;;;;;;;;;25.10;99.90;;;;;;4999708;28;19920;-72
2023/09/02 06:06:10;;;;;;;;;;;25.10;99.90;;;;;;5001759;28;19913;-71
2023/09/02 06:08:36;;;;;;;;;;;25.20;99.90;;;;;;5001226;28;19909;-71
2023/09/02 06:11:02;;;;;;;;;;;25.50;99.90;;;;;;4994768;28;19914;-71
2023/09/02 06:13:28;;;;;;;;;;;25.70;99.90;;;;;;5000561;28;20410;-72
2023/09/02 06:15:58;;;;;;;;;;;25.70;99.90;;;;;;4998676;28;19910;-72
2023/09/02 06:18:24;;;;;;;;;;;25.90;99.90;;;;;;4996130;28;19909;-72
2023/09/02 06:20:49;;;;;;;;;;;26.70;99.90;;;;;;4998734;28;20396;-66
2023/09/02 06:23:15;;;;;;;;;;;27.10;98.40;;;;;;5000062;28;20667;-68
2023/09/02 06:25:40;;;;;;;;;;;27.70;98.40;;;;;;4995618;28;20021;-67
2023/09/02 06:28:06;;;;;;;;;;;28.50;96.40;;;;;;5014026;28;20571;-68
2023/09/02 06:30:32;;;;;;;;;;;28.30;96.40;;;;;;4998311;28;20043;-66
2023/09/02 06:32:57;;;;;;;;;;;28.70;96.40;;;;;;5014553;28;19917;-67
2023/09/02 06:35:23;;;;;;;;;;;28.90;95.60;;;;;;4998019;28;19905;-68
2023/09/02 06:37:49;;;;;;;;;;;29.70;95.00;;;;;;4998243;28;19906;-68
2023/09/02 06:40:14;;;;;;;;;;;31.40;92.90;;;;;;4998022;28;19909;-69
2023/09/02 06:42:40;;;;;;;;;;;32.10;91.90;;;;;;4995067;28;19909;-69
2023/09/02 06:45:06;;;;;;;;;;;32.90;90.10;;;;;;4993937;28;20013;-70
2023/09/02 06:47:32;;;;;;;;;;;33.70;86.70;;;;;;5012076;28;19914;-68
2023/09/02 06:49:57;;;;;;;;;;;34.00;83.30;;;;;;4997409;28;19910;-69
2023/09/02 06:52:23;;;;;;;;;;;33.90;81.80;;;;;;5000427;28;19909;-75
2023/09/02 06:54:48;;;;;;;;;;;34.30;80.40;;;;;;4996945;28;20324;-74
2023/09/02 06:57:14;;;;;;;;;;;33.40;79.70;;;;;;5013873;28;20000;-74
2023/09/02 06:59:40;;;;;;;;;;;30.80;83.60;;;;;;4994058;28;19939;-74
2023/09/02 07:02:05;;;;;;;;;;;30.80;85.90;;;;;;5019059;28;20264;-74
2023/09/02 07:04:31;;;;;;;;;;;31.60;84.00;;;;;;5013763;28;19913;-73
2023/09/02 07:06:56;;;;;;;;;;;31.40;85.20;;;;;;4995771;28;19917;-73
2023/09/02 07:09:22;;;;;;;;;;;31.20;84.80;;;;;;5000327;28;19954;-73
2023/09/02 07:11:47;;;;;;;;;;;32.00;82.80;;;;;;4992250;28;20250;-74
2023/09/02 07:14:13;;;;;;;;;;;31.90;82.70;;;;;;5012243;28;19914;-72
2023/09/02 07:16:38;;;;;;;;;;;32.70;82.10;;;;;;4999290;28;20152;-68
2023/09/02 07:19:04;;;;;;;;;;;33.50;80.30;;;;;;4997878;28;19914;-68
2023/09/02 07:21:29;;;;;;;;;;;32.50;80.30;;;;;;4995374;28;20447;-67
2023/09/02 07:23:55;;;;;;;;;;;33.30;79.50;;;;;;4992061;28;20008;-68
2023/09/02 07:26:21;;;;;;;;;;;33.50;78.70;;;;;;4997868;28;19999;-66
2023/09/02 07:28:46;;;;;;;;;;;31.80;80.20;;;;;;5001502;28;19906;-69
2023/09/02 07:31:12;;;;;;;;;;;31.10;81.80;;;;;;4993495;28;20489;-66
2023/09/02 07:33:38;;;;;;;;;;;30.00;83.10;;;;;;4998250;28;20678;-68
2023/09/02 07:36:10;;;;;;;;;;;30.90;83.40;;;;;;4997132;28;19978;-75
2023/09/02 07:38:36;;;;;;;;;;;32.00;80.90;;;;;;4995858;28;19909;-69
2023/09/02 07:41:01;;;;;;;;;;;33.40;79.20;;;;;;4992993;28;19923;-67
2023/09/02 07:43:27;;;;;;;;;;;32.00;78.90;;;;;;4995589;28;20221;-68
2023/09/02 07:45:54;;;;;;;;;;;32.40;79.80;;;;;;4996793;28;19939;-69
2023/09/02 07:48:19;;;;;;;;;;;33.10;79.00;;;;;;4997535;28;20346;-66
2023/09/02 07:50:45;;;;;;;;;;;33.60;77.90;;;;;;5011547;28;20496;-67
2023/09/02 07:53:10;;;;;;;;;;;34.30;76.60;;;;;;4990204;28;19913;-69
2023/09/02 07:55:36;;;;;;;;;;;34.90;75.60;;;;;;5001666;28;19955;-67
2023/09/02 07:58:02;;;;;;;;;;;33.90;75.20;;;;;;5009482;28;19963;-68
2023/09/02 08:00:28;;;;;;;;;;;32.90;77.10;;;;;;4997779;28;20363;-68
2023/09/02 08:02:54;;;;;;;;;;;34.70;76.30;;;;;;4998682;28;20362;-68
2023/09/02 08:05:19;;;;;;;;;;;35.60;73.70;;;;;;4993333;28;19961;-70
2023/09/02 08:07:45;;;;;;;;;;;33.60;74.80;;;;;;5001258;28;19963;-67
2023/09/02 08:10:11;;;;;;;;;;;34.20;75.40;;;;;;4992381;28;19916;-68
2023/09/02 08:12:36;;;;;;;;;;;34.70;75.10;;;;;;5012164;28;20367;-68
2023/09/02 08:15:02;;;;;;;;;;;34.80;74.40;;;;;;4998460;28;19935;-68
2023/09/02 08:17:27;;;;;;;;;;;36.00;73.10;;;;;;4993844;28;19958;-67
2023/09/02 08:19:53;;;;;;;;;;;36.50;73.00;;;;;;4996697;28;20375;-68
2023/09/02 08:22:18;;;;;;;;;;;38.30;70.00;;;;;;4995988;28;19913;-69
2023/09/02 08:24:44;;;;;;;;;;;38.00;68.70;;;;;;5011541;28;19996;-66
2023/09/02 08:27:10;;;;;;;;;;;35.70;70.40;;;;;;4995891;28;19906;-67
2023/09/02 08:29:35;;;;;;;;;;;35.30;71.70;;;;;;4996799;28;19932;-67
2023/09/02 08:32:01;;;;;;;;;;;35.40;71.50;;;;;;4992147;28;19917;-67
2023/09/02 08:34:27;;;;;;;;;;;35.30;71.70;;;;;;5010768;28;20364;-66
2023/09/02 08:36:52;;;;;;;;;;;34.40;72.00;;;;;;4995999;28;19949;-69
2023/09/02 08:39:18;;;;;;;;;;;35.30;72.30;;;;;;4997274;28;20310;-68
2023/09/02 08:41:44;;;;;;;;;;;36.40;72.20;;;;;;4994454;28;19920;-67
2023/09/02 08:44:11;;;;;;;;;;;35.80;70.20;;;;;;4994649;28;20498;-78
2023/09/02 08:46:40;;;;;;;;;;;36.50;70.20;;;;;;5000228;28;20324;-78
2023/09/02 08:49:05;;;;;;;;;;;36.90;68.90;;;;;;5014350;28;19909;-78
2023/09/02 08:51:33;;;;;;;;;;;36.10;69.60;;;;;;5013918;28;19921;-78
2023/09/02 08:53:58;;;;;;;;;;;35.90;69.70;;;;;;5018317;28;19905;-77
2023/09/02 08:56:24;;;;;;;;;;;36.40;69.70;;;;;;4999124;28;20348;-78
2023/09/02 08:58:52;;;;;;;;;;;36.70;68.60;;;;;;4996929;28;19928;-78
2023/09/02 09:01:19;;;;;;;;;;;34.60;70.90;;;;;;5013626;28;19909;-78
2023/09/02 09:03:51;;;;;;;;;;;34.30;70.70;;;;;;5015381;28;20468;-78
2023/09/02 09:06:18;;;;;;;;;;;32.00;73.40;;;;;;5005150;28;19914;-77
2023/09/02 09:08:45;;;;;;;;;;;31.70;75.00;;;;;;5002728;28;19913;-77
2023/09/02 09:11:11;;;;;;;;;;;32.20;75.00;;;;;;5000869;28;20265;-78
2023/09/02 09:13:43;;;;;;;;;;;31.10;76.30;;;;;;4998542;28;19948;-77
2023/09/02 09:16:13;;;;;;;;;;;31.90;75.60;;;;;;5016545;28;20640;-77
2023/09/02 09:18:38;;;;;;;;;;;31.40;75.60;;;;;;5001956;28;20657;-77
2023/09/02 09:21:04;;;;;;;;;;;31.80;75.30;;;;;;5017126;28;19968;-76
2023/09/02 09:23:29;;;;;;;;;;;33.20;73.90;;;;;;5001151;28;20265;-77
2023/09/02 09:25:55;;;;;;;;;;;32.40;73.90;;;;;;4997588;28;20552;-77
2023/09/02 09:28:21;;;;;;;;;;;32.90;74.50;;;;;;5004902;28;19948;-78
2023/09/02 09:30:47;;;;;;;;;;;34.40;72.40;;;;;;5002150;28;19955;-78
2023/09/02 09:33:12;;;;;;;;;;;35.00;70.80;;;;;;4999979;28;20039;-77
2023/09/02 09:35:38;;;;;;;;;;;33.20;72.80;;;;;;4998463;28;19905;-78
2023/09/02 09:38:04;;;;;;;;;;;33.40;72.80;;;;;;4996592;28;19956;-78
2023/09/02 09:40:31;;;;;;;;;;;32.90;73.30;;;;;;5015926;28;20472;-78
2023/09/02 09:42:57;;;;;;;;;;;33.70;73.30;;;;;;5001260;28;20285;-81
2023/09/02 09:45:23;;;;;;;;;;;33.20;72.90;;;;;;5001704;28;19911;-77
2023/09/02 09:47:48;;;;;;;;;;;32.50;73.80;;;;;;5004315;28;19909;-76
2023/09/02 09:50:15;;;;;;;;;;;31.50;74.80;;;;;;4999665;28;20365;-76
2023/09/02 09:52:41;;;;;;;;;;;33.10;73.30;;;;;;4999877;28;20353;-76
2023/09/02 09:55:09;;;;;;;;;;;34.20;72.30;;;;;;4997927;28;20533;-77
2023/09/02 09:57:36;;;;;;;;;;;33.30;71.20;;;;;;5002043;28;19940;-78
2023/09/02 10:00:03;;;;;;;;;;;31.60;73.00;;;;;;5001759;28;19920;-77
2023/09/02 10:02:29;;;;;;;;;;;32.00;74.50;;;;;;5000006;28;19916;-76
2023/09/02 10:04:59;;;;;;;;;;;34.20;73.20;;;;;;4999839;28;19962;-77
2023/09/02 10:07:26;;;;;;;;;;;36.30;69.20;;;;;;4999899;28;20329;-77
2023/09/02 10:09:56;;;;;;;;;;;35.10;69.20;;;;;;4999898;28;20517;-77
2023/09/02 10:12:22;;;;;;;;;;;35.60;69.20;;;;;;5015238;28;19917;-78
2023/09/02 10:14:49;;;;;;;;;;;36.50;68.00;;;;;;5017238;28;19989;-77
2023/09/02 10:17:16;;;;;;;;;;;36.90;67.40;;;;;;5005431;28;20388;-77
2023/09/02 10:19:44;;;;;;;;;;;37.90;66.00;;;;;;5005496;28;20008;-78
2023/09/02 10:22:14;;;;;;;;;;;35.50;66.90;;;;;;4997618;28;19909;-79
2023/09/02 10:25:04;;;;;;;;;;;36.60;67.10;;;;;;4998378;28;19940;-78
2023/09/02 10:27:31;;;;;;;;;;;37.00;67.20;;;;;;5009272;28;20234;-78
2023/09/02 10:30:00;;;;;;;;;;;36.50;65.80;;;;;;4996788;28;20102;-78
2023/09/02 10:32:46;;;;;;;;;;;36.60;66.20;;;;;;5002685;28;20265;-77
2023/09/02 10:35:13;;;;;;;;;;;34.90;66.80;;;;;;5010917;28;20679;-77
2023/09/02 10:37:50;;;;;;;;;;;34.20;69.10;;;;;;4997359;28;19956;-76
2023/09/02 10:40:20;;;;;;;;;;;35.60;67.20;;;;;;4999222;28;19906;-77
2023/09/02 10:42:47;;;;;;;;;;;34.40;68.00;;;;;;4999771;28;19944;-79
2023/09/02 10:45:13;;;;;;;;;;;33.50;69.90;;;;;;5003519;28;19932;-78
2023/09/02 10:47:39;;;;;;;;;;;35.20;68.70;;;;;;5000787;28;19913;-77
2023/09/02 10:50:06;;;;;;;;;;;36.90;66.40;;;;;;4994304;28;19951;-78
2023/09/02 10:52:31;;;;;;;;;;;34.60;67.40;;;;;;5000879;28;19917;-78
2023/09/02 10:55:03;;;;;;;;;;;34.10;68.20;;;;;;5002111;28;19920;-78
2023/09/02 10:57:43;;;;;;;;;;;34.70;68.50;;;;;;4999167;28;19917;-78
2023/09/02 11:00:19;;;;;;;;;;;34.20;68.40;;;;;;5011498;28;19995;-78
2023/09/02 11:02:45;;;;;;;;;;;31.90;70.60;;;;;;4998859;28;19920;-77
2023/09/02 11:05:11;;;;;;;;;;;31.40;72.70;;;;;;5012726;28;20136;-77
2023/09/02 11:07:39;;;;;;;;;;;30.70;73.00;;;;;;4998493;28;19916;-77
2023/09/02 11:10:05;;;;;;;;;;;30.60;73.30;;;;;;4999112;28;20545;-77
2023/09/02 11:12:33;;;;;;;;;;;31.00;72.60;;;;;;4997635;28;19917;-77
2023/09/02 11:15:04;;;;;;;;;;;31.10;72.70;;;;;;4999074;28;19906;-77
2023/09/02 11:17:31;;;;;;;;;;;30.80;73.30;;;;;;4998159;28;20246;-77
2023/09/02 11:19:59;;;;;;;;;;;29.90;74.80;;;;;;4994776;28;19972;-76
2023/09/02 11:22:43;;;;;;;;;;;29.80;75.40;;;;;;4999285;28;20470;-76
2023/09/02 11:25:08;;;;;;;;;;;30.20;74.10;;;;;;4994534;28;19916;-76
2023/09/02 11:27:44;;;;;;;;;;;30.00;74.70;;;;;;4999314;28;20617;-75
2023/09/02 11:30:10;;;;;;;;;;;29.60;74.40;;;;;;4994979;28;19913;-75
2023/09/02 11:32:43;;;;;;;;;;;29.80;75.00;;;;;;4999124;28;19926;-75
2023/09/02 11:35:09;;;;;;;;;;;29.40;75.10;;;;;;4999564;28;19909;-75
2023/09/02 11:37:35;;;;;;;;;;;29.30;76.20;;;;;;4994536;28;20016;-75
2023/09/02 11:40:13;;;;;;;;;;;29.20;75.10;;;;;;4998103;28;20680;-75
2023/09/02 11:42:54;;;;;;;;;;;28.90;75.90;;;;;;4998545;28;19952;-75
2023/09/02 11:45:20;;;;;;;;;;;29.20;76.00;;;;;;4995575;28;20348;-75
2023/09/02 11:47:46;;;;;;;;;;;29.40;76.20;;;;;;4997219;28;19948;-75
2023/09/02 11:50:13;;;;;;;;;;;29.30;76.10;;;;;;4999526;28;19913;-76
2023/09/02 11:52:39;;;;;;;;;;;29.10;75.90;;;;;;4991270;28;19919;-76
2023/09/02 11:55:09;;;;;;;;;;;28.60;76.90;;;;;;4998397;28;19928;-75
2023/09/02 11:57:36;;;;;;;;;;;28.70;76.40;;;;;;4993598;28;19915;-75
2023/09/02 12:00:01;;;;;;;;;;;28.80;76.60;;;;;;4999368;28;19909;-75
2023/09/02 12:02:27;;;;;;;;;;;28.90;76.40;;;;;;4997511;28;19970;-75
2023/09/02 12:04:55;;;;;;;;;;;29.20;75.90;;;;;;4998820;28;19905;-75
2023/09/02 12:07:21;;;;;;;;;;;28.90;76.20;;;;;;4999177;28;20399;-75
2023/09/02 12:09:46;;;;;;;;;;;29.10;76.20;;;;;;4997719;28;19949;-75
2023/09/02 12:12:12;;;;;;;;;;;29.30;75.20;;;;;;5003112;28;20336;-75
2023/09/02 12:14:40;;;;;;;;;;;29.30;76.10;;;;;;4996592;28;19909;-75
2023/09/02 12:17:06;;;;;;;;;;;29.40;75.20;;;;;;4998636;28;19963;-77
2023/09/02 12:19:31;;;;;;;;;;;29.20;75.60;;;;;;4998876;28;20372;-76
2023/09/02 12:21:57;;;;;;;;;;;28.90;76.00;;;;;;4994230;28;20044;-71
2023/09/02 12:24:23;;;;;;;;;;;28.70;75.80;;;;;;4995976;28;19916;-71
2023/09/02 12:26:49;;;;;;;;;;;28.80;75.80;;;;;;4996667;28;19914;-71
2023/09/02 12:29:15;;;;;;;;;;;29.40;75.80;;;;;;5012179;28;19913;-71
2023/09/02 12:31:44;;;;;;;;;;;29.80;74.70;;;;;;4998025;28;20536;-71
2023/09/02 12:34:10;;;;;;;;;;;29.80;74.30;;;;;;4991933;28;19977;-71
2023/09/02 12:36:35;;;;;;;;;;;29.90;74.30;;;;;;4996883;28;19928;-71
2023/09/02 12:39:01;;;;;;;;;;;29.70;73.60;;;;;;4992621;28;20261;-71
2023/09/02 12:41:44;;;;;;;;;;;29.20;75.00;;;;;;4999379;28;19909;-72
2023/09/02 12:44:11;;;;;;;;;;;29.40;75.20;;;;;;5014580;28;19916;-71
2023/09/02 12:46:36;;;;;;;;;;;29.70;74.50;;;;;;5000390;28;19909;-71
2023/09/02 12:49:02;;;;;;;;;;;29.70;73.90;;;;;;5001696;28;19913;-70
2023/09/02 12:51:27;;;;;;;;;;;29.50;73.90;;;;;;4997505;28;20329;-70
2023/09/02 12:53:53;;;;;;;;;;;29.80;73.80;;;;;;5000363;28;19914;-66
2023/09/02 12:56:19;;;;;;;;;;;29.80;73.10;;;;;;5001789;28;19910;-69
2023/09/02 12:58:44;;;;;;;;;;;29.90;72.80;;;;;;5000241;28;20578;-70
2023/09/02 13:01:10;;;;;;;;;;;30.10;73.70;;;;;;4994601;28;19917;-69
2023/09/02 13:03:35;;;;;;;;;;;29.80;73.20;;;;;;4999526;28;20328;-71
2023/09/02 13:06:01;;;;;;;;;;;29.80;73.10;;;;;;4998939;28;19979;-72
2023/09/02 13:08:26;;;;;;;;;;;29.60;73.50;;;;;;4999472;28;19909;-71
2023/09/02 13:10:52;;;;;;;;;;;29.60;74.40;;;;;;4999647;28;20391;-71
2023/09/02 13:13:18;;;;;;;;;;;29.50;73.90;;;;;;4994411;28;19941;-72
2023/09/02 13:15:44;;;;;;;;;;;29.40;74.80;;;;;;4999909;28;19914;-72
2023/09/02 13:18:09;;;;;;;;;;;29.30;74.30;;;;;;4999958;28;19905;-72
2023/09/02 13:20:35;;;;;;;;;;;29.50;74.40;;;;;;5015227;28;19913;-70
2023/09/02 13:23:03;;;;;;;;;;;29.80;74.40;;;;;;4998896;28;19909;-72
2023/09/02 13:25:29;;;;;;;;;;;29.80;74.30;;;;;;4999717;28;19915;-73
2023/09/02 13:27:54;;;;;;;;;;;29.80;74.00;;;;;;5013799;28;19909;-67
2023/09/02 13:30:22;;;;;;;;;;;29.90;73.50;;;;;;4998011;28;19921;-67
2023/09/02 13:32:48;;;;;;;;;;;29.90;73.00;;;;;;4999949;28;20500;-68
2023/09/02 13:35:15;;;;;;;;;;;29.90;73.20;;;;;;5009889;28;19914;-68
2023/09/02 13:37:44;;;;;;;;;;;29.60;73.70;;;;;;4997678;28;19913;-66
2023/09/02 13:40:18;;;;;;;;;;;29.80;74.50;;;;;;4994882;28;20022;-67
2023/09/02 13:42:44;;;;;;;;;;;30.00;74.10;;;;;;5013319;28;20036;-67
2023/09/02 13:45:13;;;;;;;;;;;30.00;73.70;;;;;;4998891;28;19910;-67
2023/09/02 13:47:49;;;;;;;;;;;29.80;74.30;;;;;;5015312;28;19909;-68
2023/09/02 13:50:16;;;;;;;;;;;29.50;74.50;;;;;;4999410;28;20288;-67
2023/09/02 13:52:42;;;;;;;;;;;29.50;73.60;;;;;;4995074;28;20554;-69
2023/09/02 13:55:09;;;;;;;;;;;29.40;74.10;;;;;;5001106;28;19916;-68
2023/09/02 13:57:35;;;;;;;;;;;29.10;74.50;;;;;;5014887;28;20371;-68
2023/09/02 14:00:06;;;;;;;;;;;29.10;75.50;;;;;;4998469;28;19906;-67
2023/09/02 14:02:32;;;;;;;;;;;29.20;75.00;;;;;;4998362;28;19910;-66
2023/09/02 14:04:58;;;;;;;;;;;29.10;74.40;;;;;;4993335;28;20574;-70
2023/09/02 14:26:29;;;;;;;;;;;29.10;74.40;;;;;;5012283;28;19932;-69
2023/09/02 14:28:59;;;;;;;;;;;29.00;74.30;;;;;;5016590;28;20015;-69
2023/09/02 14:31:25;;;;;;;;;;;29.00;74.40;;;;;;5026728;28;19996;-70